航空気象通報

ウインドサーファーのための航空気象通報による風予報です。

10/31-11/2の航空気象通報

2017年10月31日 23時47分53秒 | TAF
羽田空港
TAF RJTT 311105Z 3112/0118 01008KT 9999 FEW020 SCT040
BECMG 0100/0103 09005KT
BECMG 0103/0106 18014KT
BECMG 0112/0115 35008KT
日本時間31日21時-1日09時:010度から8ノットの風
09-12時:風が変化
12時:090度から5ノットの風
12-15時:風が変化
15-21時:180度から14ノットの風
21-24時:風が変化
2日00-03時:350度から8ノットの風


静岡空港
TAF RJNS 311105Z 3112/0118 34004KT 9999 FEW015 BKN025
BECMG 0100/0103 18006KT
BECMG 0106/0109 26008KT
日本時間31日21時-1日09時:340度から4ノットの風
09-12時:風が変化
12-15時:180度から6ノットの風
15-18時:風が変化
18時-2日03時:260度から8ノットの風


福岡空港
TAF RJFF 311108Z 3112/0118 15005KT 9999 FEW030
BECMG 0100/0103 32008KT
BECMG 0109/0112 15005KT
日本時間31日21時-1日09時:150度から5ノットの風
09-12時:風が変化
12-18時:320度から8ノットの風
18-21時:風が変化
21時-2日03時:150度から5ノットの風


那覇空港
TAF ROAH 311105Z 3112/0118 08010KT 9999 FEW030 SCT040
日本時間31日21時-2日03時:080度から10ノットの風


石垣空港
TAF ROIG 311108Z 3112/0118 05015KT 9999 FEW030 BKN045
TEMPO 0103/0106 4000 SHRA
日本時間31日21時-2日03時:050度から15ノットの風

但し、1日12-15時の間:時々

マウイのカフルイ空港
PHOG 311138Z 3112/0112 16005KT P6SM FEW025 BKN250
FM312100 03010KT P6SM FEW030 SCT060 BKN250
FM010500 VRB03KT P6SM FEW030 SCT060 BKN250
FM010800 13005KT P6SM FEW030 SCT060 BKN250
ハワイ時間31日02-11時:160度から5ノットの風
11-19時:030度から10ノットの風
19-22時:風向不定3ノットの風
22時-1日02時:130度から5ノットの風


サイパン空港
TAF PGSN 311121Z 3112/0112 04011KT P6SM VCSH SCT025 BKN080 BKN120
マリアナ時間31日22時-1日22時:040度から11ノットの風

コメント
この記事をはてなブックマークに追加

10/30-11/1の航空気象通報

2017年10月30日 23時32分37秒 | TAF
羽田空港
TAF AMD RJTT 301206Z 3012/3118 35022KT 9999 FEW030
TEMPO 3012/3015 35034G46KT
TEMPO 3015/3018 35024G36KT
BECMG 3019/3021 34012KT
BECMG 3103/3106 17011KT
BECMG 3112/3115 02005KT
日本時間30日21時-31日04時:350度から22ノットの風
但し、30日21-24時の間:時々350度から34ノット、突風46ノット
但し、31日00-03時の間:時々350度から24ノット、突風36ノット
04-06時:風が変化
06-12時:340度から12ノットの風
12-15時:風が変化
15-21時:170度から11ノットの風
21-24時:風が変化
1日00-03時:020度から5ノットの風


静岡空港
TAF RJNS 301108Z 3012/3118 28012KT 9999 FEW030
BECMG 3022/3100 10006KT
BECMG 3109/3112 33004KT
日本時間30日21時-31日07時:280度から12ノットの風
07-09時:風が変化
09-18時:100度から6ノットの風
18-21時:風が変化
1日00-03時:330度から4ノットの風


福岡空港
TAF RJFF 301107Z 3012/3118 15005KT 9999 FEW030
BECMG 3100/3103 33010KT
BECMG 3109/3112 15005KT
日本時間30日21時-31日09時:150度から5ノットの風
09-12時:風が変化
12-18時:330度から10ノットの風
18-21時:風が変化
21時-1日03時:150度から5ノットの風


那覇空港
TAF ROAH 301105Z 3012/3118 04013KT 9999 FEW030 BKN045
日本時間30日21時-1日03時:040度から13ノットの風


石垣空港
TAF ROIG 301108Z 3012/3118 03014KT 9999 FEW025 BKN045
日本時間30日21時-1日03時:030度から14ノットの風


マウイのカフルイ空港
PHOG 301125Z 3012/3112 15005KT P6SM FEW050
FM302000 06013KT P6SM FEW030 SCT050
FM310600 17004KT P6SM FEW050 AMD LTD TO VIS AND WIND TIL 301600
ハワイ時間30日02-10時:150度から5ノットの風
10-20時:060度から13ノットの風
20時-31日02時:170度から4ノットの風


サイパン空港
TAF PGSN 301120Z 3012/3112 09008KT P6SM VCSH FEW018 SCT110
マリアナ時間30日22時-31日22時:090度から8ノットの風
コメント
この記事をはてなブックマークに追加

10/29-10/31の航空気象通報

2017年10月30日 01時24分19秒 | TAF
羽田空港
TAF RJTT 291105Z 2912/3018 34022KT 9000 FEW008 BKN015
TEMPO 2912/2914 FEW005 BKN008
BECMG 2913/2915 20010KT
BECMG 2916/2918 32012KT
TEMPO 3000/3009 33022G34KT
日本時間29日21-22時:340度から22ノットの風
22-24時:風が変化
30日00-01時:200度から10ノットの風
01-03時:風が変化
03時-31日03時:320度から12ノットの風
但し、30日09-18時の間:時々330度から22ノット、突風34ノット


静岡空港
TAF RJNS 291105Z 2912/3018 26020KT 9999 FEW025
TEMPO 2912/2916 27022G32KT
TEMPO 3000/3006 28020G30KT
BECMG 3012/3015 28010KT
日本時間29日21時-30日21時:260度から20ノットの風
但し、29日21時-30日01時の間:時々270度から22ノット、突風32ノット
但し、30日09-15時の間:時々280度から20ノット、突風30ノット
21-24時:風が変化
31日00-03時:280度から10ノットの風
、30日00-03時の後、

福岡空港
TAF RJFF 291105Z 2912/3018 32011KT 9999 FEW020 SCT040
TEMPO 2912/2915 31018G28KT
BECMG 3009/3012 15004KT
日本時間29日21時-30日18時:320度から11ノットの風
但し、29日21-24時の間:時々310度から18ノット、突風28ノット
18-21時:風が変化
21時-31日03時:150度から4ノットの風


那覇空港
TAF ROAH 291106Z 2912/3018 01020KT 9999 FEW025 SCT045
日本時間29日21時-31日03時:010度から20ノットの風


石垣空港
TAF ROIG 291108Z 2912/3018 02019KT 9999 FEW020 SCT040
TEMPO 2912/3006 02021G31KT
日本時間29日21時-31日03時:020度から19ノットの風
但し、29日21時-30日15時の間:時々020度から21ノット、突風31ノット


マウイのカフルイ空港
PHOG 291130Z 2912/3012 14005KT P6SM FEW030 FEW050
FM292000 03011G18KT P6SM FEW030 SCT050
FM300400 07005KT P6SM FEW030 SCT050 AMD LTD TO VIS AND WIND TIL 291600
ハワイ時間29日02-10時:140度から5ノットの風
10-18時:030度から11ノット、突風18ノット
18時-30日02時:070度から5ノットの風


サイパン空港
TAF PGSN 291125Z 2912/3012 10008KT P6SM VCSH SCT020
マリアナ時間29日22時-30日22時:100度から8ノットの風
コメント
この記事をはてなブックマークに追加

10/28-10/30の航空気象通報

2017年10月28日 22時52分13秒 | TAF
羽田空港
TAF RJTT 281106Z 2812/2918 01014KT 6000 -RA FEW010 BKN015
TEMPO 2812/2815 4000 -RA BR FEW005 BKN008
TEMPO 2815/2820 3000 RA BR FEW003 BKN005
TEMPO 2820/2906 2500 SHRA BR FEW005 BKN008
TEMPO 2906/2912 4000 -SHRA BR FEW005 BKN008
TEMPO 2912/2918 01022G34KT 1800 +SHRA BR FEW003 BKN005
日本時間28日21時-30日03時:010度から14ノットの風
但し、29日21時-30日03時の間:時々010度から22ノット、突風34ノット


静岡空港
TAF RJNS 281105Z 2812/2918 04008KT 6000 -RA FEW008 BKN030
TEMPO 2813/2822 4000 RA BR
BECMG 2822/2900 4000 -SHRA BR FEW005 BKN008
TEMPO 2822/2906 3000 SHRA BR FEW003 BKN005
TEMPO 2906/2915 1500 +SHRA BR FEW003 BKN005
BECMG 2915/2918 27020G30KT 9999 NSW FEW030
日本時間28日21時-29日24時:040度から8ノットの風
30日00-03時:風が変化
03時:270度から20ノット、突風30ノット
、30日00-03時の後、

福岡空港
TAF RJFF 281107Z 2812/2918 04009KT 7000 -SHRA FEW005 SCT015 BKN025
TEMPO 2812/2818 3000 SHRA BR
TEMPO 2818/2900 4000 SHRA BR
TEMPO 2900/2909 35018G28KT
BECMG 2906/2909 34016KT
BECMG 2909/2912 31018G28KT
日本時間28日21時-29日15時:040度から9ノットの風
15-18時:風が変化
18時:340度から16ノットの風
18-21時:風が変化
21時-30日03時:310度から18ノット、突風28ノット

但し、28日15時-29日03時の間:時々

那覇空港
TAF ROAH 281108Z 2812/2918 32025KT 9999 FEW015 BKN030
TEMPO 2812/2818 32028G40KT
日本時間28日21時-30日03時:320度から25ノットの風
但し、28日21時-29日03時の間:時々320度から28ノット、突風40ノット


石垣空港
TAF ROIG 281109Z 2812/2918 34012KT 9999 FEW015 BKN030
TEMPO 2906/2918 01018G30KT
日本時間28日21時-30日03時:340度から12ノットの風
但し、29日15時-30日03時の間:時々010度から18ノット、突風30ノット


マウイのカフルイ空港
PHOG 281120Z 2812/2912 VRB05KT P6SM FEW025 FEW050
FM282100 03010KT P6SM VCSH FEW030 BKN045
FM290500 04005KT P6SM FEW030 SCT040 AMD LTD TO VIS AND WIND TIL 281600
ハワイ時間28日02-11時:風向不定5ノットの風
11-19時:030度から10ノットの風
19時-29日02時:040度から5ノットの風


サイパン空港
TAF PGSN 281122Z 2812/2912 08010KT P6SM VCSH SCT020
マリアナ時間28日22時-29日22時:080度から10ノットの風

コメント
この記事をはてなブックマークに追加

10/27-10/29の航空気象通報

2017年10月28日 00時52分22秒 | TAF
羽田空港
TAF RJTT 271105Z 2712/2818 01012KT 9999 FEW015 BKN040
BECMG 2803/2806 4000 -RA BR FEW005 BKN008
TEMPO 2812/2818 3000 RA BR FEW003 BKN005
日本時間27日21時-29日03時:010度から12ノットの風
、28日12-15時の後、

静岡空港
TAF RJNS 271105Z 2712/2818 05006KT 9999 FEW020 SCT040
TEMPO 2812/2818 4000 -RA BR FEW005 BKN008
日本時間27日21時-29日03時:050度から6ノットの風

但し、28日21時-29日03時の間:時々

福岡空港
TAF RJFF 271105Z 2712/2818 14004KT 9999 FEW030
BECMG 2806/2809 07011KT
TEMPO 2806/2809 4000 -SHRA BR
TEMPO 2809/2818 3000 SHRA BR
BECMG 2812/2815 04008KT
日本時間27日21時-28日15時:140度から4ノットの風
15-18時:風が変化
18-21時:070度から11ノットの風
21-24時:風が変化
29日00-03時:040度から8ノットの風

但し、28日15時-29日03時の間:時々

那覇空港
TAF ROAH 271115Z 2712/2818 04020KT 9999 FEW010 BKN020
TEMPO 2712/2800 07028G38KT 4000 SHRA FEW008 BKN015 FEW020CB
BECMG 2800/2803 14028KT
TEMPO 2800/2806 14035G45KT 3000 SHRA FEW008 BKN015 FEW020CB
BECMG 2806/2809 20036G50KT
TEMPO 2806/2818 2000 +SHRA FEW008 BKN015 SCT020CB
BECMG 2812/2815 29036G50KT
日本時間27日21時-28日09時:040度から20ノットの風
但し、27日21時-28日09時の間:時々070度から28ノット、突風38ノット
09-12時:風が変化
12-15時:140度から28ノットの風
但し、28日09-15時の間:時々140度から35ノット、突風45ノット
15-18時:風が変化
18-21時:200度から36ノット、突風50ノット
21-24時:風が変化
29日00-03時:290度から36ノット、突風50ノット

但し、27日21時-29日03時の間:時々

石垣空港
TAF ROIG 271112Z 2712/2818 35020G32KT 9999 FEW015 BKN040
日本時間27日21時-29日03時:350度から20ノット、突風32ノット


マウイのカフルイ空港
PHOG 271120Z 2712/2812 02006KT P6SM FEW020 BKN040
FM272000 03013G20KT P6SM FEW035 SCT050
FM280400 VRB05KT P6SM FEW020 SCT050 AMD LTD TO VIS AND WIND TIL 271600
ハワイ時間27日02-10時:020度から6ノットの風

10-18時:030度から13ノット、突風20ノット
18時-28日02時:風向不定5ノットの風


サイパン空港
TAF PGSN 271120Z 2712/2812 07011KT P6SM VCSH SCT024
マリアナ時間27日22時-29日22時:070度から11ノットの風
コメント
この記事をはてなブックマークに追加